KEND

Vance AFB Airport

Enid, Oklahoma, USA
METAR KEND 212256Z 06005KT 10SM CLR 29/18 A3013 RMK AO2A SLP194 T02900178
Observed Flight Rules
Aug-21 @ 22:56 UTC (50 minutes ago) Visual Flight Rules
Wind Visibility Clouds
60° at 5 knots 10 miles
  • Clear skies
Temperatures Readings
Current 29°C / 84°F
Dewpoint 18°C / 64°F
Humidity 51%
Altimeter 30.13" Hg
Pressure 1019.4 hPa
Elevation 398
METAR KEND 212256Z 06005KT 10SM CLR 29/18 A3013 RMK AO2A SLP194 T02900178
Observed Flight Rules
Aug-21 @ 22:56 UTC
(50 minutes ago)
VFR
Wind Visibility
60° at 5 knots 10 miles
Clouds
  • Clear skies
Temperature Dewpoint
29°C / 84°F 18°C / 64°F
Humidity Altimeter Pressure
51% 30.13" Hg 1019.4 hPa